sensor_id;sensor_type;location;lat;lon;timestamp;pressure;altitude;pressure_sealevel;temperature;humidity
4085;BME280;2057;50.858;6.572;2023-04-21T00:00:50;100141.94;;;7.45;100.00
4085;BME280;2057;50.858;6.572;2023-04-21T00:03:18;100140.88;;;7.57;100.00
4085;BME280;2057;50.858;6.572;2023-04-21T00:05:46;100143.06;;;7.50;100.00
4085;BME280;2057;50.858;6.572;2023-04-21T00:08:12;100138.09;;;7.52;100.00
4085;BME280;2057;50.858;6.572;2023-04-21T00:10:38;100144.53;;;7.62;100.00
4085;BME280;2057;50.858;6.572;2023-04-21T00:13:03;100136.41;;;7.67;100.00
4085;BME280;2057;50.858;6.572;2023-04-21T00:15:28;100142.50;;;7.71;100.00
4085;BME280;2057;50.858;6.572;2023-04-21T00:17:54;100142.44;;;7.69;100.00
4085;BME280;2057;50.858;6.572;2023-04-21T00:20:20;100137.00;;;7.78;100.00
4085;BME280;2057;50.858;6.572;2023-04-21T00:22:45;100132.91;;;7.80;100.00
4085;BME280;2057;50.858;6.572;2023-04-21T00:25:10;100120.03;;;7.61;100.00
4085;BME280;2057;50.858;6.572;2023-04-21T00:27:36;100119.59;;;7.68;100.00
4085;BME280;2057;50.858;6.572;2023-04-21T00:30:01;100113.94;;;7.72;100.00
4085;BME280;2057;50.858;6.572;2023-04-21T00:32:26;100116.13;;;7.66;100.00
4085;BME280;2057;50.858;6.572;2023-04-21T00:34:55;100120.94;;;7.61;100.00
4085;BME280;2057;50.858;6.572;2023-04-21T00:37:23;100111.06;;;7.66;100.00
4085;BME280;2057;50.858;6.572;2023-04-21T00:39:50;100121.59;;;7.59;100.00
4085;BME280;2057;50.858;6.572;2023-04-21T00:42:16;100117.44;;;7.59;100.00
4085;BME280;2057;50.858;6.572;2023-04-21T00:44:44;100119.91;;;7.58;100.00
4085;BME280;2057;50.858;6.572;2023-04-21T00:47:09;100111.28;;;7.39;100.00
4085;BME280;2057;50.858;6.572;2023-04-21T00:49:35;100113.69;;;7.52;100.00
4085;BME280;2057;50.858;6.572;2023-04-21T00:52:03;100118.50;;;7.48;100.00
4085;BME280;2057;50.858;6.572;2023-04-21T00:54:29;100111.09;;;7.51;100.00
4085;BME280;2057;50.858;6.572;2023-04-21T00:56:55;100105.78;;;7.46;100.00
4085;BME280;2057;50.858;6.572;2023-04-21T00:59:22;100112.47;;;7.46;100.00
4085;BME280;2057;50.858;6.572;2023-04-21T01:01:50;100115.72;;;7.43;100.00
4085;BME280;2057;50.858;6.572;2023-04-21T01:04:17;100114.34;;;7.48;100.00
4085;BME280;2057;50.858;6.572;2023-04-21T01:06:43;100121.72;;;7.45;100.00
4085;BME280;2057;50.858;6.572;2023-04-21T01:09:09;100116.22;;;7.52;100.00
4085;BME280;2057;50.858;6.572;2023-04-21T01:11:36;100110.31;;;7.52;100.00
4085;BME280;2057;50.858;6.572;2023-04-21T01:14:05;100111.75;;;7.63;100.00
4085;BME280;2057;50.858;6.572;2023-04-21T01:16:31;100117.19;;;7.54;100.00
4085;BME280;2057;50.858;6.572;2023-04-21T01:18:58;100113.25;;;7.60;100.00
4085;BME280;2057;50.858;6.572;2023-04-21T01:21:25;100112.59;;;7.47;100.00
4085;BME280;2057;50.858;6.572;2023-04-21T01:23:51;100108.75;;;7.54;100.00
4085;BME280;2057;50.858;6.572;2023-04-21T01:26:22;100110.06;;;7.47;100.00
4085;BME280;2057;50.858;6.572;2023-04-21T01:28:48;100112.91;;;7.53;100.00
4085;BME280;2057;50.858;6.572;2023-04-21T01:31:14;100116.56;;;7.59;100.00
4085;BME280;2057;50.858;6.572;2023-04-21T01:33:40;100106.81;;;7.65;100.00
4085;BME280;2057;50.858;6.572;2023-04-21T01:36:07;100112.91;;;7.68;100.00
4085;BME280;2057;50.858;6.572;2023-04-21T01:38:32;100106.94;;;7.68;100.00
4085;BME280;2057;50.858;6.572;2023-04-21T01:40:58;100103.75;;;7.71;100.00
4085;BME280;2057;50.858;6.572;2023-04-21T01:43:24;100107.13;;;7.71;100.00
4085;BME280;2057;50.858;6.572;2023-04-21T01:45:50;100115.59;;;7.72;100.00
4085;BME280;2057;50.858;6.572;2023-04-21T01:48:16;100109.47;;;7.68;100.00
4085;BME280;2057;50.858;6.572;2023-04-21T01:50:41;100105.38;;;7.70;100.00
4085;BME280;2057;50.858;6.572;2023-04-21T01:53:06;100103.31;;;7.63;100.00
4085;BME280;2057;50.858;6.572;2023-04-21T01:55:32;100105.00;;;7.62;100.00
4085;BME280;2057;50.858;6.572;2023-04-21T01:57:57;100109.34;;;7.65;100.00
4085;BME280;2057;50.858;6.572;2023-04-21T02:00:27;100106.09;;;7.67;100.00
4085;BME280;2057;50.858;6.572;2023-04-21T02:02:52;100107.75;;;7.67;100.00
4085;BME280;2057;50.858;6.572;2023-04-21T02:05:17;100093.53;;;7.69;100.00
4085;BME280;2057;50.858;6.572;2023-04-21T02:07:44;100101.22;;;7.71;100.00
4085;BME280;2057;50.858;6.572;2023-04-21T02:10:10;100102.72;;;7.67;100.00
4085;BME280;2057;50.858;6.572;2023-04-21T02:12:36;100100.34;;;7.70;100.00
4085;BME280;2057;50.858;6.572;2023-04-21T02:15:02;100107.06;;;7.69;100.00
4085;BME280;2057;50.858;6.572;2023-04-21T02:17:27;100104.28;;;7.65;100.00
4085;BME280;2057;50.858;6.572;2023-04-21T02:19:55;100101.75;;;7.65;100.00
4085;BME280;2057;50.858;6.572;2023-04-21T02:22:20;100103.56;;;7.67;100.00
4085;BME280;2057;50.858;6.572;2023-04-21T02:24:47;100106.53;;;7.75;100.00
4085;BME280;2057;50.858;6.572;2023-04-21T02:27:13;100101.53;;;7.77;100.00
4085;BME280;2057;50.858;6.572;2023-04-21T02:29:40;100102.78;;;7.68;100.00
4085;BME280;2057;50.858;6.572;2023-04-21T02:32:06;100095.75;;;7.63;100.00
4085;BME280;2057;50.858;6.572;2023-04-21T02:34:36;100093.66;;;7.56;100.00
4085;BME280;2057;50.858;6.572;2023-04-21T02:37:02;100095.25;;;7.53;100.00
4085;BME280;2057;50.858;6.572;2023-04-21T02:39:27;100097.59;;;7.50;100.00
4085;BME280;2057;50.858;6.572;2023-04-21T02:41:53;100103.97;;;7.44;100.00
4085;BME280;2057;50.858;6.572;2023-04-21T02:44:18;100106.91;;;7.51;100.00
4085;BME280;2057;50.858;6.572;2023-04-21T02:46:46;100103.53;;;7.51;100.00
4085;BME280;2057;50.858;6.572;2023-04-21T02:49:12;100098.41;;;7.49;100.00
4085;BME280;2057;50.858;6.572;2023-04-21T02:51:37;100093.50;;;7.52;100.00
4085;BME280;2057;50.858;6.572;2023-04-21T02:54:03;100095.25;;;7.53;100.00
4085;BME280;2057;50.858;6.572;2023-04-21T02:56:30;100092.53;;;7.50;100.00
4085;BME280;2057;50.858;6.572;2023-04-21T02:58:58;100085.78;;;7.49;100.00
4085;BME280;2057;50.858;6.572;2023-04-21T03:01:26;100098.53;;;7.52;100.00
4085;BME280;2057;50.858;6.572;2023-04-21T03:03:53;100090.47;;;7.43;100.00
4085;BME280;2057;50.858;6.572;2023-04-21T03:06:19;100101.53;;;7.45;100.00
4085;BME280;2057;50.858;6.572;2023-04-21T03:08:44;100097.25;;;7.44;100.00
4085;BME280;2057;50.858;6.572;2023-04-21T03:11:09;100104.69;;;7.41;100.00
4085;BME280;2057;50.858;6.572;2023-04-21T03:13:37;100103.34;;;7.33;100.00
4085;BME280;2057;50.858;6.572;2023-04-21T03:16:03;100099.44;;;7.38;100.00
4085;BME280;2057;50.858;6.572;2023-04-21T03:18:28;100100.06;;;7.34;100.00
4085;BME280;2057;50.858;6.572;2023-04-21T03:20:58;100096.03;;;7.37;100.00
4085;BME280;2057;50.858;6.572;2023-04-21T03:23:24;100103.53;;;7.36;100.00
4085;BME280;2057;50.858;6.572;2023-04-21T03:25:50;100093.09;;;7.30;100.00
4085;BME280;2057;50.858;6.572;2023-04-21T03:28:15;100087.72;;;7.24;100.00
4085;BME280;2057;50.858;6.572;2023-04-21T03:30:41;100084.06;;;7.18;100.00
4085;BME280;2057;50.858;6.572;2023-04-21T03:33:06;100084.38;;;7.25;100.00
4085;BME280;2057;50.858;6.572;2023-04-21T03:35:31;100094.53;;;7.10;100.00
4085;BME280;2057;50.858;6.572;2023-04-21T03:37:58;100097.97;;;7.12;100.00
4085;BME280;2057;50.858;6.572;2023-04-21T03:40:23;100092.06;;;7.11;100.00
4085;BME280;2057;50.858;6.572;2023-04-21T03:42:49;100106.00;;;7.04;100.00
4085;BME280;2057;50.858;6.572;2023-04-21T03:45:14;100100.09;;;7.04;100.00
4085;BME280;2057;50.858;6.572;2023-04-21T03:47:40;100101.72;;;7.03;100.00
4085;BME280;2057;50.858;6.572;2023-04-21T03:50:05;100098.78;;;6.96;100.00
4085;BME280;2057;50.858;6.572;2023-04-21T03:52:31;100092.78;;;6.94;100.00
4085;BME280;2057;50.858;6.572;2023-04-21T03:54:57;100089.72;;;6.84;100.00
4085;BME280;2057;50.858;6.572;2023-04-21T03:57:22;100103.47;;;6.46;100.00
4085;BME280;2057;50.858;6.572;2023-04-21T03:59:48;100103.59;;;6.48;100.00
4085;BME280;2057;50.858;6.572;2023-04-21T04:02:13;100106.13;;;6.48;100.00
4085;BME280;2057;50.858;6.572;2023-04-21T04:04:38;100106.25;;;6.36;100.00
4085;BME280;2057;50.858;6.572;2023-04-21T04:07:06;100104.50;;;6.35;100.00
4085;BME280;2057;50.858;6.572;2023-04-21T04:09:33;100098.59;;;6.34;100.00
4085;BME280;2057;50.858;6.572;2023-04-21T04:11:58;100106.25;;;6.36;100.00
4085;BME280;2057;50.858;6.572;2023-04-21T04:14:23;100108.66;;;6.34;100.00
4085;BME280;2057;50.858;6.572;2023-04-21T04:16:49;100110.66;;;6.53;100.00
4085;BME280;2057;50.858;6.572;2023-04-21T04:19:14;100115.84;;;6.56;100.00
4085;BME280;2057;50.858;6.572;2023-04-21T04:21:41;100111.50;;;6.54;100.00
4085;BME280;2057;50.858;6.572;2023-04-21T04:24:09;100106.16;;;6.34;100.00
4085;BME280;2057;50.858;6.572;2023-04-21T04:26:35;100115.41;;;6.20;100.00
4085;BME280;2057;50.858;6.572;2023-04-21T04:29:03;100110.28;;;6.19;100.00
4085;BME280;2057;50.858;6.572;2023-04-21T04:31:30;100117.41;;;6.26;100.00
4085;BME280;2057;50.858;6.572;2023-04-21T04:33:56;100105.38;;;6.35;100.00
4085;BME280;2057;50.858;6.572;2023-04-21T04:36:22;100111.38;;;6.37;100.00
4085;BME280;2057;50.858;6.572;2023-04-21T04:38:50;100109.13;;;6.42;100.00
4085;BME280;2057;50.858;6.572;2023-04-21T04:41:16;100109.72;;;6.38;100.00
4085;BME280;2057;50.858;6.572;2023-04-21T04:43:42;100106.06;;;6.33;100.00
4085;BME280;2057;50.858;6.572;2023-04-21T04:46:08;100109.50;;;6.20;100.00
4085;BME280;2057;50.858;6.572;2023-04-21T04:48:37;100105.47;;;5.95;100.00
4085;BME280;2057;50.858;6.572;2023-04-21T04:51:02;100110.34;;;5.52;100.00
4085;BME280;2057;50.858;6.572;2023-04-21T04:53:27;100099.94;;;4.93;100.00
4085;BME280;2057;50.858;6.572;2023-04-21T04:55:53;100101.47;;;4.78;100.00
4085;BME280;2057;50.858;6.572;2023-04-21T04:58:18;100098.84;;;4.76;100.00
4085;BME280;2057;50.858;6.572;2023-04-21T05:00:44;100104.88;;;4.92;100.00
4085;BME280;2057;50.858;6.572;2023-04-21T05:03:12;100112.19;;;4.75;100.00
4085;BME280;2057;50.858;6.572;2023-04-21T05:05:37;100116.66;;;4.54;100.00
4085;BME280;2057;50.858;6.572;2023-04-21T05:08:03;100114.41;;;4.84;100.00
4085;BME280;2057;50.858;6.572;2023-04-21T05:10:28;100126.97;;;4.70;100.00
4085;BME280;2057;50.858;6.572;2023-04-21T05:12:53;100126.16;;;4.97;100.00
4085;BME280;2057;50.858;6.572;2023-04-21T05:15:22;100130.78;;;5.29;100.00
4085;BME280;2057;50.858;6.572;2023-04-21T05:17:49;100122.31;;;5.15;100.00
4085;BME280;2057;50.858;6.572;2023-04-21T05:20:15;100116.22;;;4.98;100.00
4085;BME280;2057;50.858;6.572;2023-04-21T05:22:40;100117.00;;;5.11;100.00
4085;BME280;2057;50.858;6.572;2023-04-21T05:25:06;100123.56;;;5.09;100.00
4085;BME280;2057;50.858;6.572;2023-04-21T05:27:32;100123.19;;;5.16;100.00
4085;BME280;2057;50.858;6.572;2023-04-21T05:30:00;100122.47;;;4.92;100.00
4085;BME280;2057;50.858;6.572;2023-04-21T05:32:25;100124.59;;;4.60;100.00
4085;BME280;2057;50.858;6.572;2023-04-21T05:34:51;100124.09;;;4.78;100.00
4085;BME280;2057;50.858;6.572;2023-04-21T05:37:16;100125.63;;;4.76;100.00
4085;BME280;2057;50.858;6.572;2023-04-21T05:39:42;100121.56;;;4.78;100.00
4085;BME280;2057;50.858;6.572;2023-04-21T05:42:10;100125.47;;;4.86;100.00
4085;BME280;2057;50.858;6.572;2023-04-21T05:44:38;100121.94;;;4.70;100.00
4085;BME280;2057;50.858;6.572;2023-04-21T05:47:04;100124.09;;;4.91;100.00
4085;BME280;2057;50.858;6.572;2023-04-21T05:49:30;100126.38;;;5.00;100.00
4085;BME280;2057;50.858;6.572;2023-04-21T05:51:55;100124.16;;;5.05;100.00
4085;BME280;2057;50.858;6.572;2023-04-21T05:54:23;100133.00;;;5.11;100.00
4085;BME280;2057;50.858;6.572;2023-04-21T05:56:48;100131.75;;;5.31;100.00
4085;BME280;2057;50.858;6.572;2023-04-21T05:59:13;100130.19;;;5.47;100.00
4085;BME280;2057;50.858;6.572;2023-04-21T06:01:39;100128.53;;;5.47;100.00
4085;BME280;2057;50.858;6.572;2023-04-21T06:04:04;100126.13;;;5.62;100.00
4085;BME280;2057;50.858;6.572;2023-04-21T06:06:30;100124.47;;;5.76;100.00
4085;BME280;2057;50.858;6.572;2023-04-21T06:08:56;100122.63;;;5.87;100.00
4085;BME280;2057;50.858;6.572;2023-04-21T06:11:21;100119.13;;;5.99;100.00
4085;BME280;2057;50.858;6.572;2023-04-21T06:13:48;100118.66;;;6.04;100.00
4085;BME280;2057;50.858;6.572;2023-04-21T06:16:13;100115.22;;;6.17;100.00
4085;BME280;2057;50.858;6.572;2023-04-21T06:18:39;100115.78;;;6.26;100.00
4085;BME280;2057;50.858;6.572;2023-04-21T06:21:04;100113.44;;;6.30;100.00
4085;BME280;2057;50.858;6.572;2023-04-21T06:23:29;100105.38;;;6.35;100.00
4085;BME280;2057;50.858;6.572;2023-04-21T06:26:02;100113.56;;;6.46;100.00
4085;BME280;2057;50.858;6.572;2023-04-21T06:28:33;100111.00;;;6.59;100.00
4085;BME280;2057;50.858;6.572;2023-04-21T06:31:00;100117.78;;;6.61;100.00
4085;BME280;2057;50.858;6.572;2023-04-21T06:33:26;100108.75;;;6.64;100.00
4085;BME280;2057;50.858;6.572;2023-04-21T06:35:52;100120.22;;;6.74;100.00
4085;BME280;2057;50.858;6.572;2023-04-21T06:38:17;100104.25;;;6.88;100.00
4085;BME280;2057;50.858;6.572;2023-04-21T06:40:43;100103.19;;;7.00;100.00
4085;BME280;2057;50.858;6.572;2023-04-21T06:43:08;100096.94;;;7.08;100.00
4085;BME280;2057;50.858;6.572;2023-04-21T06:45:33;100095.91;;;7.04;100.00
4085;BME280;2057;50.858;6.572;2023-04-21T06:47:59;100099.72;;;7.13;100.00
4085;BME280;2057;50.858;6.572;2023-04-21T06:50:27;100097.47;;;7.17;100.00
4085;BME280;2057;50.858;6.572;2023-04-21T06:52:53;100096.41;;;7.29;100.00
4085;BME280;2057;50.858;6.572;2023-04-21T06:55:19;100097.72;;;7.37;100.00
4085;BME280;2057;50.858;6.572;2023-04-21T06:57:44;100108.91;;;7.42;100.00
4085;BME280;2057;50.858;6.572;2023-04-21T07:00:19;100103.72;;;7.39;100.00
4085;BME280;2057;50.858;6.572;2023-04-21T07:02:45;100101.97;;;7.53;100.00
4085;BME280;2057;50.858;6.572;2023-04-21T07:05:10;100105.06;;;7.64;100.00
4085;BME280;2057;50.858;6.572;2023-04-21T07:07:35;100103.63;;;7.69;100.00
4085;BME280;2057;50.858;6.572;2023-04-21T07:10:01;100102.97;;;7.72;100.00
4085;BME280;2057;50.858;6.572;2023-04-21T07:12:26;100099.97;;;7.79;100.00
4085;BME280;2057;50.858;6.572;2023-04-21T07:14:51;100096.50;;;7.77;100.00
4085;BME280;2057;50.858;6.572;2023-04-21T07:17:19;100088.88;;;7.92;100.00
4085;BME280;2057;50.858;6.572;2023-04-21T07:19:44;100087.25;;;7.94;100.00
4085;BME280;2057;50.858;6.572;2023-04-21T07:22:10;100103.69;;;8.02;100.00
4085;BME280;2057;50.858;6.572;2023-04-21T07:24:36;100099.06;;;8.10;100.00
4085;BME280;2057;50.858;6.572;2023-04-21T07:27:02;100097.19;;;8.22;100.00
4085;BME280;2057;50.858;6.572;2023-04-21T07:29:27;100094.25;;;8.31;100.00
4085;BME280;2057;50.858;6.572;2023-04-21T07:31:53;100097.72;;;8.16;100.00
4085;BME280;2057;50.858;6.572;2023-04-21T07:34:19;100093.22;;;8.27;100.00
4085;BME280;2057;50.858;6.572;2023-04-21T07:36:45;100093.09;;;8.41;100.00
4085;BME280;2057;50.858;6.572;2023-04-21T07:39:10;100089.84;;;8.60;100.00
4085;BME280;2057;50.858;6.572;2023-04-21T07:41:38;100085.97;;;8.67;100.00
4085;BME280;2057;50.858;6.572;2023-04-21T07:44:03;100091.25;;;8.38;100.00
4085;BME280;2057;50.858;6.572;2023-04-21T07:46:28;100098.53;;;8.48;100.00
4085;BME280;2057;50.858;6.572;2023-04-21T07:48:59;100092.38;;;8.43;100.00
4085;BME280;2057;50.858;6.572;2023-04-21T07:51:27;100102.16;;;8.37;100.00
4085;BME280;2057;50.858;6.572;2023-04-21T07:53:53;100102.31;;;8.40;100.00
4085;BME280;2057;50.858;6.572;2023-04-21T07:56:21;100107.69;;;8.46;100.00
4085;BME280;2057;50.858;6.572;2023-04-21T07:58:46;100105.53;;;8.53;100.00
4085;BME280;2057;50.858;6.572;2023-04-21T08:01:14;100102.63;;;8.63;100.00
4085;BME280;2057;50.858;6.572;2023-04-21T08:03:39;100100.09;;;8.63;100.00
4085;BME280;2057;50.858;6.572;2023-04-21T08:06:05;100107.69;;;8.79;100.00
4085;BME280;2057;50.858;6.572;2023-04-21T08:08:31;100111.31;;;8.85;100.00
4085;BME280;2057;50.858;6.572;2023-04-21T08:10:56;100113.06;;;8.86;100.00
4085;BME280;2057;50.858;6.572;2023-04-21T08:13:22;100108.97;;;8.71;100.00
4085;BME280;2057;50.858;6.572;2023-04-21T08:15:53;100103.44;;;8.78;100.00
4085;BME280;2057;50.858;6.572;2023-04-21T08:18:19;100102.00;;;9.02;100.00
4085;BME280;2057;50.858;6.572;2023-04-21T08:20:45;100091.63;;;9.14;100.00
4085;BME280;2057;50.858;6.572;2023-04-21T08:23:14;100102.22;;;9.06;100.00
4085;BME280;2057;50.858;6.572;2023-04-21T08:25:39;100099.69;;;9.06;100.00
4085;BME280;2057;50.858;6.572;2023-04-21T08:28:05;100092.09;;;9.06;100.00
4085;BME280;2057;50.858;6.572;2023-04-21T08:30:30;100094.44;;;9.20;100.00
4085;BME280;2057;50.858;6.572;2023-04-21T08:32:58;100096.75;;;9.15;100.00
4085;BME280;2057;50.858;6.572;2023-04-21T08:35:31;100104.00;;;9.25;100.00
4085;BME280;2057;50.858;6.572;2023-04-21T08:37:56;100104.44;;;9.53;100.00
4085;BME280;2057;50.858;6.572;2023-04-21T08:40:31;100101.59;;;9.29;100.00
4085;BME280;2057;50.858;6.572;2023-04-21T08:42:57;100102.25;;;9.42;100.00
4085;BME280;2057;50.858;6.572;2023-04-21T08:45:22;100105.16;;;9.50;100.00
4085;BME280;2057;50.858;6.572;2023-04-21T08:47:48;100098.50;;;9.70;100.00
4085;BME280;2057;50.858;6.572;2023-04-21T08:50:16;100098.75;;;9.95;100.00
4085;BME280;2057;50.858;6.572;2023-04-21T08:52:41;100094.16;;;10.05;100.00
4085;BME280;2057;50.858;6.572;2023-04-21T08:55:08;100089.75;;;10.21;100.00
4085;BME280;2057;50.858;6.572;2023-04-21T08:57:36;100081.19;;;10.37;100.00
4085;BME280;2057;50.858;6.572;2023-04-21T09:00:01;100079.63;;;10.41;100.00
4085;BME280;2057;50.858;6.572;2023-04-21T09:02:28;100077.28;;;10.45;100.00
4085;BME280;2057;50.858;6.572;2023-04-21T09:04:56;100085.09;;;10.50;100.00
4085;BME280;2057;50.858;6.572;2023-04-21T09:07:32;100086.44;;;10.42;100.00
4085;BME280;2057;50.858;6.572;2023-04-21T09:09:58;100078.81;;;10.61;100.00
4085;BME280;2057;50.858;6.572;2023-04-21T09:12:28;100081.16;;;10.57;100.00
4085;BME280;2057;50.858;6.572;2023-04-21T09:14:53;100085.91;;;10.49;100.00
4085;BME280;2057;50.858;6.572;2023-04-21T09:17:21;100084.34;;;10.72;100.00
4085;BME280;2057;50.858;6.572;2023-04-21T09:19:51;100084.31;;;10.92;100.00
4085;BME280;2057;50.858;6.572;2023-04-21T09:22:17;100082.47;;;10.68;98.29
4085;BME280;2057;50.858;6.572;2023-04-21T09:24:47;100081.19;;;10.78;97.53
4085;BME280;2057;50.858;6.572;2023-04-21T09:27:14;100079.69;;;10.83;98.73
4085;BME280;2057;50.858;6.572;2023-04-21T09:29:45;100075.31;;;11.00;100.00
4085;BME280;2057;50.858;6.572;2023-04-21T09:32:15;100076.59;;;11.11;100.00
4085;BME280;2057;50.858;6.572;2023-04-21T09:34:41;100077.16;;;11.25;100.00
4085;BME280;2057;50.858;6.572;2023-04-21T09:37:10;100074.00;;;11.31;98.62
4085;BME280;2057;50.858;6.572;2023-04-21T09:39:35;100077.34;;;11.09;97.37
4085;BME280;2057;50.858;6.572;2023-04-21T09:42:01;100078.22;;;11.30;99.01
4085;BME280;2057;50.858;6.572;2023-04-21T09:44:27;100068.28;;;11.37;98.22
4085;BME280;2057;50.858;6.572;2023-04-21T09:46:59;100065.25;;;11.68;99.21
4085;BME280;2057;50.858;6.572;2023-04-21T09:49:28;100070.97;;;11.63;94.15
4085;BME280;2057;50.858;6.572;2023-04-21T09:51:56;100068.28;;;11.59;94.62
4085;BME280;2057;50.858;6.572;2023-04-21T09:54:28;100059.41;;;11.71;93.63
4085;BME280;2057;50.858;6.572;2023-04-21T09:56:55;100052.06;;;11.79;92.70
4085;BME280;2057;50.858;6.572;2023-04-21T09:59:27;100056.59;;;11.87;93.17
4085;BME280;2057;50.858;6.572;2023-04-21T10:01:57;100050.75;;;11.90;93.87
4085;BME280;2057;50.858;6.572;2023-04-21T10:04:24;100044.59;;;12.06;92.69
4085;BME280;2057;50.858;6.572;2023-04-21T10:06:50;100039.03;;;12.16;92.34
4085;BME280;2057;50.858;6.572;2023-04-21T10:09:17;100033.38;;;12.25;91.92
4085;BME280;2057;50.858;6.572;2023-04-21T10:11:45;100036.56;;;12.19;92.04
4085;BME280;2057;50.858;6.572;2023-04-21T10:14:11;100024.16;;;12.29;91.36
4085;BME280;2057;50.858;6.572;2023-04-21T10:16:37;100027.63;;;12.57;89.99
4085;BME280;2057;50.858;6.572;2023-04-21T10:19:22;100025.28;;;12.63;89.02
4085;BME280;2057;50.858;6.572;2023-04-21T10:21:49;100024.25;;;12.56;89.06
4085;BME280;2057;50.858;6.572;2023-04-21T10:24:14;100016.84;;;12.64;88.87
4085;BME280;2057;50.858;6.572;2023-04-21T10:26:40;100010.13;;;12.66;90.69
4085;BME280;2057;50.858;6.572;2023-04-21T10:29:07;100011.00;;;12.94;89.77
4085;BME280;2057;50.858;6.572;2023-04-21T10:31:48;100006.56;;;13.15;88.16
4085;BME280;2057;50.858;6.572;2023-04-21T10:34:16;100009.06;;;13.41;88.40
4085;BME280;2057;50.858;6.572;2023-04-21T10:39:10;99998.63;;;13.06;85.55
4085;BME280;2057;50.858;6.572;2023-04-21T10:41:42;99994.16;;;12.99;86.75
4085;BME280;2057;50.858;6.572;2023-04-21T10:44:12;99993.81;;;13.15;85.45
4085;BME280;2057;50.858;6.572;2023-04-21T10:46:40;99985.78;;;13.30;86.08
4085;BME280;2057;50.858;6.572;2023-04-21T10:49:09;99985.00;;;13.33;86.33
4085;BME280;2057;50.858;6.572;2023-04-21T10:54:36;99986.69;;;13.61;85.05
4085;BME280;2057;50.858;6.572;2023-04-21T10:57:07;99966.66;;;13.75;85.28
4085;BME280;2057;50.858;6.572;2023-04-21T10:59:33;99959.06;;;13.77;84.20
4085;BME280;2057;50.858;6.572;2023-04-21T11:01:59;99963.38;;;13.79;85.16
4085;BME280;2057;50.858;6.572;2023-04-21T11:04:24;99953.69;;;13.98;81.35
4085;BME280;2057;50.858;6.572;2023-04-21T11:07:18;99962.81;;;14.23;80.70
4085;BME280;2057;50.858;6.572;2023-04-21T11:09:45;99952.56;;;14.22;80.14
4085;BME280;2057;50.858;6.572;2023-04-21T11:12:13;99940.03;;;14.30;78.29
4085;BME280;2057;50.858;6.572;2023-04-21T11:14:42;99933.53;;;14.42;77.21
4085;BME280;2057;50.858;6.572;2023-04-21T11:17:18;99933.66;;;14.49;74.66
4085;BME280;2057;50.858;6.572;2023-04-21T11:19:48;99931.31;;;14.58;76.62
4085;BME280;2057;50.858;6.572;2023-04-21T11:22:18;99925.28;;;14.54;76.76
4085;BME280;2057;50.858;6.572;2023-04-21T11:24:44;99912.03;;;14.69;78.02
4085;BME280;2057;50.858;6.572;2023-04-21T11:27:10;99912.72;;;15.02;76.27
4085;BME280;2057;50.858;6.572;2023-04-21T11:29:38;99899.03;;;14.98;76.37
4085;BME280;2057;50.858;6.572;2023-04-21T11:32:08;99896.56;;;15.03;76.86
4085;BME280;2057;50.858;6.572;2023-04-21T11:34:36;99892.38;;;15.06;77.17
4085;BME280;2057;50.858;6.572;2023-04-21T11:37:01;99890.81;;;15.13;78.58
4085;BME280;2057;50.858;6.572;2023-04-21T11:39:26;99882.53;;;15.25;79.36
4085;BME280;2057;50.858;6.572;2023-04-21T11:41:52;99886.09;;;15.33;77.50
4085;BME280;2057;50.858;6.572;2023-04-21T11:44:37;99883.13;;;15.56;79.81
4085;BME280;2057;50.858;6.572;2023-04-21T11:47:21;99876.41;;;15.61;76.43
4085;BME280;2057;50.858;6.572;2023-04-21T11:49:57;99874.00;;;15.69;79.49
4085;BME280;2057;50.858;6.572;2023-04-21T11:52:27;99873.13;;;15.70;76.58
4085;BME280;2057;50.858;6.572;2023-04-21T11:55:01;99873.03;;;15.65;77.21
4085;BME280;2057;50.858;6.572;2023-04-21T11:57:28;99875.91;;;15.81;74.23
4085;BME280;2057;50.858;6.572;2023-04-21T11:59:57;99863.97;;;15.83;74.64
4085;BME280;2057;50.858;6.572;2023-04-21T12:02:24;99863.28;;;15.90;72.29
4085;BME280;2057;50.858;6.572;2023-04-21T12:04:57;99861.09;;;16.13;71.41
4085;BME280;2057;50.858;6.572;2023-04-21T12:07:23;99868.53;;;15.98;70.19
4085;BME280;2057;50.858;6.572;2023-04-21T12:09:52;99860.75;;;15.93;71.10
4085;BME280;2057;50.858;6.572;2023-04-21T12:12:17;99861.44;;;16.37;71.90
4085;BME280;2057;50.858;6.572;2023-04-21T12:14:45;99864.00;;;16.37;68.10
4085;BME280;2057;50.858;6.572;2023-04-21T12:17:11;99853.81;;;16.40;67.72
4085;BME280;2057;50.858;6.572;2023-04-21T12:19:38;99860.91;;;16.58;67.31
4085;BME280;2057;50.858;6.572;2023-04-21T12:24:34;99862.63;;;16.60;65.88
4085;BME280;2057;50.858;6.572;2023-04-21T12:26:59;99847.44;;;16.71;66.44
4085;BME280;2057;50.858;6.572;2023-04-21T12:29:25;99843.91;;;16.65;66.07
4085;BME280;2057;50.858;6.572;2023-04-21T12:31:51;99844.09;;;16.77;64.30
4085;BME280;2057;50.858;6.572;2023-04-21T12:34:16;99842.63;;;16.95;65.61
4085;BME280;2057;50.858;6.572;2023-04-21T12:36:41;99834.22;;;17.06;62.07
4085;BME280;2057;50.858;6.572;2023-04-21T12:39:07;99834.28;;;17.11;63.69
4085;BME280;2057;50.858;6.572;2023-04-21T13:37:59;99771.31;;;18.66;54.01
4085;BME280;2057;50.858;6.572;2023-04-21T13:40:25;99774.78;;;18.82;55.86
4085;BME280;2057;50.858;6.572;2023-04-21T13:42:50;99761.94;;;18.87;53.27
4085;BME280;2057;50.858;6.572;2023-04-21T13:45:16;99761.19;;;19.09;53.79
4085;BME280;2057;50.858;6.572;2023-04-21T13:47:42;99756.03;;;19.05;53.59
4085;BME280;2057;50.858;6.572;2023-04-21T13:50:07;99755.84;;;18.55;54.26
4085;BME280;2057;50.858;6.572;2023-04-21T13:52:33;99754.16;;;18.65;53.86
4085;BME280;2057;50.858;6.572;2023-04-21T13:55:00;99750.88;;;19.00;53.80
4085;BME280;2057;50.858;6.572;2023-04-21T13:57:28;99747.41;;;18.95;52.86
4085;BME280;2057;50.858;6.572;2023-04-21T13:59:53;99739.66;;;18.89;55.02
4085;BME280;2057;50.858;6.572;2023-04-21T14:02:19;99745.78;;;19.33;53.69
4085;BME280;2057;50.858;6.572;2023-04-21T14:04:47;99736.34;;;19.39;53.82
4085;BME280;2057;50.858;6.572;2023-04-21T14:07:15;99739.78;;;19.43;51.79
4085;BME280;2057;50.858;6.572;2023-04-21T14:09:42;99738.03;;;19.00;53.84
4085;BME280;2057;50.858;6.572;2023-04-21T14:12:08;99739.50;;;18.38;53.79
4085;BME280;2057;50.858;6.572;2023-04-21T14:14:38;99727.47;;;18.32;55.24